sensor_id;sensor_type;location;lat;lon;timestamp;P1;durP1;ratioP1;P2;durP2;ratioP2
57663;SDS011;43493;53.098;6.064;2022-10-31T00:01:58;23.43;;;13.07;;
57663;SDS011;43493;53.098;6.064;2022-10-31T00:04:24;16.23;;;11.57;;
57663;SDS011;43493;53.098;6.064;2022-10-31T00:06:49;20.27;;;12.73;;
57663;SDS011;43493;53.098;6.064;2022-10-31T00:09:15;21.93;;;12.23;;
57663;SDS011;43493;53.098;6.064;2022-10-31T00:11:41;20.87;;;12.17;;
57663;SDS011;43493;53.098;6.064;2022-10-31T00:14:06;16.87;;;12.17;;
57663;SDS011;43493;53.098;6.064;2022-10-31T00:16:32;15.70;;;11.20;;
57663;SDS011;43493;53.098;6.064;2022-10-31T00:18:59;20.83;;;11.90;;
57663;SDS011;43493;53.098;6.064;2022-10-31T00:21:26;20.00;;;12.30;;
57663;SDS011;43493;53.098;6.064;2022-10-31T00:23:52;20.53;;;12.77;;
57663;SDS011;43493;53.098;6.064;2022-10-31T00:26:18;15.80;;;11.80;;
57663;SDS011;43493;53.098;6.064;2022-10-31T00:28:43;15.87;;;11.97;;
57663;SDS011;43493;53.098;6.064;2022-10-31T00:31:10;18.27;;;11.63;;
57663;SDS011;43493;53.098;6.064;2022-10-31T00:33:38;20.30;;;12.90;;
57663;SDS011;43493;53.098;6.064;2022-10-31T00:36:04;20.07;;;11.60;;
57663;SDS011;43493;53.098;6.064;2022-10-31T00:38:31;17.67;;;12.30;;
57663;SDS011;43493;53.098;6.064;2022-10-31T00:40:57;18.80;;;12.33;;
57663;SDS011;43493;53.098;6.064;2022-10-31T00:43:23;16.60;;;11.63;;
57663;SDS011;43493;53.098;6.064;2022-10-31T00:45:49;21.90;;;13.63;;
57663;SDS011;43493;53.098;6.064;2022-10-31T00:48:14;21.27;;;11.70;;
57663;SDS011;43493;53.098;6.064;2022-10-31T00:50:40;17.60;;;11.93;;
57663;SDS011;43493;53.098;6.064;2022-10-31T00:53:06;21.50;;;12.13;;
57663;SDS011;43493;53.098;6.064;2022-10-31T00:55:32;17.50;;;12.47;;
57663;SDS011;43493;53.098;6.064;2022-10-31T00:57:58;16.77;;;11.50;;
57663;SDS011;43493;53.098;6.064;2022-10-31T01:00:24;17.33;;;11.83;;
57663;SDS011;43493;53.098;6.064;2022-10-31T01:02:49;16.07;;;12.60;;
57663;SDS011;43493;53.098;6.064;2022-10-31T01:05:15;17.57;;;12.43;;
57663;SDS011;43493;53.098;6.064;2022-10-31T01:07:41;21.87;;;12.53;;
57663;SDS011;43493;53.098;6.064;2022-10-31T01:10:07;20.10;;;12.77;;
57663;SDS011;43493;53.098;6.064;2022-10-31T01:12:42;16.37;;;12.37;;
57663;SDS011;43493;53.098;6.064;2022-10-31T01:15:09;15.90;;;11.60;;
57663;SDS011;43493;53.098;6.064;2022-10-31T01:17:37;18.27;;;12.20;;
57663;SDS011;43493;53.098;6.064;2022-10-31T01:20:03;18.63;;;13.93;;
57663;SDS011;43493;53.098;6.064;2022-10-31T01:22:30;20.87;;;13.13;;
57663;SDS011;43493;53.098;6.064;2022-10-31T01:24:56;24.20;;;13.67;;
57663;SDS011;43493;53.098;6.064;2022-10-31T01:27:22;20.93;;;13.20;;
57663;SDS011;43493;53.098;6.064;2022-10-31T01:29:47;19.23;;;12.37;;
57663;SDS011;43493;53.098;6.064;2022-10-31T01:32:13;18.83;;;13.53;;
57663;SDS011;43493;53.098;6.064;2022-10-31T01:34:39;20.03;;;12.87;;
57663;SDS011;43493;53.098;6.064;2022-10-31T01:37:04;17.37;;;12.80;;
57663;SDS011;43493;53.098;6.064;2022-10-31T01:39:30;19.60;;;13.20;;
57663;SDS011;43493;53.098;6.064;2022-10-31T01:41:56;16.97;;;12.37;;
57663;SDS011;43493;53.098;6.064;2022-10-31T01:46:51;16.37;;;12.27;;
57663;SDS011;43493;53.098;6.064;2022-10-31T01:49:40;22.87;;;14.60;;
57663;SDS011;43493;53.098;6.064;2022-10-31T01:52:13;20.17;;;12.63;;
57663;SDS011;43493;53.098;6.064;2022-10-31T01:57:23;20.10;;;13.57;;
57663;SDS011;43493;53.098;6.064;2022-10-31T01:59:51;20.90;;;12.80;;
57663;SDS011;43493;53.098;6.064;2022-10-31T02:02:20;20.33;;;13.57;;
57663;SDS011;43493;53.098;6.064;2022-10-31T02:04:46;17.03;;;14.80;;
57663;SDS011;43493;53.098;6.064;2022-10-31T02:07:35;21.57;;;15.10;;
57663;SDS011;43493;53.098;6.064;2022-10-31T02:10:07;19.93;;;14.33;;
57663;SDS011;43493;53.098;6.064;2022-10-31T02:12:33;23.60;;;14.77;;
57663;SDS011;43493;53.098;6.064;2022-10-31T02:15:01;21.47;;;14.33;;
57663;SDS011;43493;53.098;6.064;2022-10-31T02:17:28;22.43;;;14.53;;
57663;SDS011;43493;53.098;6.064;2022-10-31T02:25:35;21.13;;;13.70;;
57663;SDS011;43493;53.098;6.064;2022-10-31T02:36:10;27.23;;;15.80;;
57663;SDS011;43493;53.098;6.064;2022-10-31T02:39:02;24.13;;;14.23;;
57663;SDS011;43493;53.098;6.064;2022-10-31T02:44:30;21.23;;;14.00;;
57663;SDS011;43493;53.098;6.064;2022-10-31T02:47:01;22.97;;;14.13;;
57663;SDS011;43493;53.098;6.064;2022-10-31T02:49:48;22.03;;;14.73;;
57663;SDS011;43493;53.098;6.064;2022-10-31T02:52:25;19.07;;;14.23;;
57663;SDS011;43493;53.098;6.064;2022-10-31T02:54:53;19.90;;;13.73;;
57663;SDS011;43493;53.098;6.064;2022-10-31T02:57:20;21.00;;;13.73;;
57663;SDS011;43493;53.098;6.064;2022-10-31T03:00:11;20.38;;;13.10;;
57663;SDS011;43493;53.098;6.064;2022-10-31T03:10:47;19.33;;;13.13;;
57663;SDS011;43493;53.098;6.064;2022-10-31T03:16:46;18.33;;;12.87;;
57663;SDS011;43493;53.098;6.064;2022-10-31T03:19:26;16.83;;;13.33;;
57663;SDS011;43493;53.098;6.064;2022-10-31T03:24:22;15.20;;;12.17;;
57663;SDS011;43493;53.098;6.064;2022-10-31T03:26:53;16.43;;;12.40;;
57663;SDS011;43493;53.098;6.064;2022-10-31T03:29:22;15.47;;;11.93;;
57663;SDS011;43493;53.098;6.064;2022-10-31T03:31:57;16.13;;;12.83;;
57663;SDS011;43493;53.098;6.064;2022-10-31T03:34:30;19.60;;;12.70;;
57663;SDS011;43493;53.098;6.064;2022-10-31T03:36:59;17.73;;;12.33;;
57663;SDS011;43493;53.098;6.064;2022-10-31T03:39:28;15.87;;;12.57;;
57663;SDS011;43493;53.098;6.064;2022-10-31T03:42:05;17.87;;;12.23;;
57663;SDS011;43493;53.098;6.064;2022-10-31T03:44:35;19.23;;;12.20;;
57663;SDS011;43493;53.098;6.064;2022-10-31T03:47:03;22.33;;;13.37;;
57663;SDS011;43493;53.098;6.064;2022-10-31T03:49:30;18.97;;;11.87;;
57663;SDS011;43493;53.098;6.064;2022-10-31T03:52:31;19.80;;;13.83;;
57663;SDS011;43493;53.098;6.064;2022-10-31T03:54:56;15.53;;;11.53;;
57663;SDS011;43493;53.098;6.064;2022-10-31T03:57:29;18.37;;;11.77;;
57663;SDS011;43493;53.098;6.064;2022-10-31T04:00:10;18.20;;;12.97;;
57663;SDS011;43493;53.098;6.064;2022-10-31T04:02:38;18.03;;;11.60;;
57663;SDS011;43493;53.098;6.064;2022-10-31T04:05:08;18.60;;;13.43;;
57663;SDS011;43493;53.098;6.064;2022-10-31T04:07:37;19.67;;;12.20;;
57663;SDS011;43493;53.098;6.064;2022-10-31T04:10:08;17.57;;;11.73;;
57663;SDS011;43493;53.098;6.064;2022-10-31T04:12:37;17.17;;;12.67;;
57663;SDS011;43493;53.098;6.064;2022-10-31T04:15:04;16.77;;;12.70;;
57663;SDS011;43493;53.098;6.064;2022-10-31T04:17:34;17.80;;;12.33;;
57663;SDS011;43493;53.098;6.064;2022-10-31T04:20:04;15.50;;;11.77;;
57663;SDS011;43493;53.098;6.064;2022-10-31T04:22:30;15.80;;;12.27;;
57663;SDS011;43493;53.098;6.064;2022-10-31T04:24:56;16.80;;;12.13;;
57663;SDS011;43493;53.098;6.064;2022-10-31T04:27:22;18.43;;;13.23;;
57663;SDS011;43493;53.098;6.064;2022-10-31T04:29:47;16.50;;;12.83;;
57663;SDS011;43493;53.098;6.064;2022-10-31T04:32:13;17.07;;;12.87;;
57663;SDS011;43493;53.098;6.064;2022-10-31T04:34:39;18.40;;;12.63;;
57663;SDS011;43493;53.098;6.064;2022-10-31T04:37:04;19.13;;;12.57;;
57663;SDS011;43493;53.098;6.064;2022-10-31T04:39:30;14.40;;;12.53;;
57663;SDS011;43493;53.098;6.064;2022-10-31T04:41:56;19.47;;;13.73;;
57663;SDS011;43493;53.098;6.064;2022-10-31T04:44:21;18.03;;;12.27;;
57663;SDS011;43493;53.098;6.064;2022-10-31T04:46:47;16.13;;;12.17;;
57663;SDS011;43493;53.098;6.064;2022-10-31T04:49:13;15.83;;;11.93;;
57663;SDS011;43493;53.098;6.064;2022-10-31T04:51:38;16.63;;;12.83;;
57663;SDS011;43493;53.098;6.064;2022-10-31T04:54:04;20.43;;;13.30;;
57663;SDS011;43493;53.098;6.064;2022-10-31T04:56:30;17.40;;;12.63;;
57663;SDS011;43493;53.098;6.064;2022-10-31T04:58:55;18.83;;;13.67;;
57663;SDS011;43493;53.098;6.064;2022-10-31T05:01:21;17.17;;;12.20;;
57663;SDS011;43493;53.098;6.064;2022-10-31T05:03:47;23.47;;;13.20;;
57663;SDS011;43493;53.098;6.064;2022-10-31T05:06:12;13.67;;;11.50;;
57663;SDS011;43493;53.098;6.064;2022-10-31T05:08:38;15.10;;;12.33;;
57663;SDS011;43493;53.098;6.064;2022-10-31T05:11:04;20.33;;;13.60;;
57663;SDS011;43493;53.098;6.064;2022-10-31T05:13:30;19.47;;;13.07;;
57663;SDS011;43493;53.098;6.064;2022-10-31T05:15:56;19.10;;;13.37;;
57663;SDS011;43493;53.098;6.064;2022-10-31T05:18:22;24.37;;;15.37;;
57663;SDS011;43493;53.098;6.064;2022-10-31T05:20:48;19.13;;;14.30;;
57663;SDS011;43493;53.098;6.064;2022-10-31T05:23:13;20.37;;;13.93;;
57663;SDS011;43493;53.098;6.064;2022-10-31T05:25:39;16.90;;;13.10;;
57663;SDS011;43493;53.098;6.064;2022-10-31T05:28:06;18.07;;;13.70;;
57663;SDS011;43493;53.098;6.064;2022-10-31T05:30:32;19.90;;;13.80;;
57663;SDS011;43493;53.098;6.064;2022-10-31T05:32:58;17.93;;;13.03;;
57663;SDS011;43493;53.098;6.064;2022-10-31T05:35:25;17.33;;;14.03;;
57663;SDS011;43493;53.098;6.064;2022-10-31T05:37:53;18.10;;;13.47;;
57663;SDS011;43493;53.098;6.064;2022-10-31T05:40:19;18.87;;;13.90;;
57663;SDS011;43493;53.098;6.064;2022-10-31T05:42:46;18.03;;;13.70;;
57663;SDS011;43493;53.098;6.064;2022-10-31T05:45:14;19.80;;;13.63;;
57663;SDS011;43493;53.098;6.064;2022-10-31T05:47:41;17.17;;;13.63;;
57663;SDS011;43493;53.098;6.064;2022-10-31T05:50:08;23.20;;;14.63;;
57663;SDS011;43493;53.098;6.064;2022-10-31T05:52:35;21.90;;;14.10;;
57663;SDS011;43493;53.098;6.064;2022-10-31T05:55:01;17.10;;;13.60;;
57663;SDS011;43493;53.098;6.064;2022-10-31T05:57:27;20.50;;;14.73;;
57663;SDS011;43493;53.098;6.064;2022-10-31T05:59:53;18.63;;;14.13;;
57663;SDS011;43493;53.098;6.064;2022-10-31T06:02:19;20.10;;;13.53;;
57663;SDS011;43493;53.098;6.064;2022-10-31T06:04:45;19.20;;;14.40;;
57663;SDS011;43493;53.098;6.064;2022-10-31T06:07:11;18.97;;;13.77;;
57663;SDS011;43493;53.098;6.064;2022-10-31T06:09:37;18.77;;;13.13;;
57663;SDS011;43493;53.098;6.064;2022-10-31T06:12:03;19.90;;;13.30;;
57663;SDS011;43493;53.098;6.064;2022-10-31T06:14:28;16.23;;;13.73;;
57663;SDS011;43493;53.098;6.064;2022-10-31T06:16:55;20.13;;;14.57;;
57663;SDS011;43493;53.098;6.064;2022-10-31T06:19:20;21.53;;;14.87;;
57663;SDS011;43493;53.098;6.064;2022-10-31T06:21:46;20.27;;;14.00;;
57663;SDS011;43493;53.098;6.064;2022-10-31T06:24:12;17.17;;;13.33;;
57663;SDS011;43493;53.098;6.064;2022-10-31T06:26:38;20.10;;;15.10;;
57663;SDS011;43493;53.098;6.064;2022-10-31T06:29:03;17.50;;;13.53;;
57663;SDS011;43493;53.098;6.064;2022-10-31T06:31:29;18.97;;;14.27;;
57663;SDS011;43493;53.098;6.064;2022-10-31T06:33:55;22.03;;;14.00;;
57663;SDS011;43493;53.098;6.064;2022-10-31T06:36:21;19.10;;;14.67;;
57663;SDS011;43493;53.098;6.064;2022-10-31T06:38:47;17.83;;;14.23;;
57663;SDS011;43493;53.098;6.064;2022-10-31T06:41:12;22.13;;;14.73;;
57663;SDS011;43493;53.098;6.064;2022-10-31T06:43:38;19.60;;;14.93;;
57663;SDS011;43493;53.098;6.064;2022-10-31T06:46:04;22.00;;;16.67;;
57663;SDS011;43493;53.098;6.064;2022-10-31T06:48:31;18.93;;;14.87;;
57663;SDS011;43493;53.098;6.064;2022-10-31T06:51:00;21.77;;;15.17;;
57663;SDS011;43493;53.098;6.064;2022-10-31T06:53:26;23.90;;;14.90;;
57663;SDS011;43493;53.098;6.064;2022-10-31T06:55:55;22.70;;;15.77;;
57663;SDS011;43493;53.098;6.064;2022-10-31T06:58:21;20.70;;;15.27;;
57663;SDS011;43493;53.098;6.064;2022-10-31T07:00:47;20.83;;;15.07;;
57663;SDS011;43493;53.098;6.064;2022-10-31T07:03:13;21.50;;;16.27;;
57663;SDS011;43493;53.098;6.064;2022-10-31T07:05:40;18.40;;;14.70;;
57663;SDS011;43493;53.098;6.064;2022-10-31T07:08:07;19.00;;;15.50;;
57663;SDS011;43493;53.098;6.064;2022-10-31T07:10:35;22.73;;;15.27;;
57663;SDS011;43493;53.098;6.064;2022-10-31T07:13:02;18.87;;;14.63;;
57663;SDS011;43493;53.098;6.064;2022-10-31T07:15:33;21.83;;;16.13;;
57663;SDS011;43493;53.098;6.064;2022-10-31T07:18:00;16.87;;;15.07;;
57663;SDS011;43493;53.098;6.064;2022-10-31T07:20:30;19.43;;;15.27;;
57663;SDS011;43493;53.098;6.064;2022-10-31T07:22:56;20.83;;;15.33;;
57663;SDS011;43493;53.098;6.064;2022-10-31T07:25:22;22.80;;;15.13;;
57663;SDS011;43493;53.098;6.064;2022-10-31T07:27:48;17.50;;;14.27;;
57663;SDS011;43493;53.098;6.064;2022-10-31T07:30:14;17.63;;;14.37;;
57663;SDS011;43493;53.098;6.064;2022-10-31T07:32:48;20.57;;;14.97;;
57663;SDS011;43493;53.098;6.064;2022-10-31T07:35:19;18.23;;;13.73;;
57663;SDS011;43493;53.098;6.064;2022-10-31T07:37:46;21.17;;;15.50;;
57663;SDS011;43493;53.098;6.064;2022-10-31T07:40:12;20.33;;;14.47;;
57663;SDS011;43493;53.098;6.064;2022-10-31T07:42:42;16.67;;;14.87;;
57663;SDS011;43493;53.098;6.064;2022-10-31T07:45:10;18.93;;;14.70;;
57663;SDS011;43493;53.098;6.064;2022-10-31T07:47:38;18.27;;;15.50;;
57663;SDS011;43493;53.098;6.064;2022-10-31T07:50:15;20.67;;;14.53;;
57663;SDS011;43493;53.098;6.064;2022-10-31T07:52:42;19.23;;;14.93;;
57663;SDS011;43493;53.098;6.064;2022-10-31T07:55:08;23.07;;;13.53;;
57663;SDS011;43493;53.098;6.064;2022-10-31T07:57:34;18.30;;;14.70;;
57663;SDS011;43493;53.098;6.064;2022-10-31T08:00:02;18.70;;;15.60;;
57663;SDS011;43493;53.098;6.064;2022-10-31T08:02:34;21.27;;;14.87;;
57663;SDS011;43493;53.098;6.064;2022-10-31T08:05:00;18.93;;;14.83;;
57663;SDS011;43493;53.098;6.064;2022-10-31T08:07:29;20.10;;;14.77;;
57663;SDS011;43493;53.098;6.064;2022-10-31T08:09:55;20.73;;;14.80;;
57663;SDS011;43493;53.098;6.064;2022-10-31T08:12:21;20.23;;;14.43;;
57663;SDS011;43493;53.098;6.064;2022-10-31T08:14:46;18.17;;;14.77;;
57663;SDS011;43493;53.098;6.064;2022-10-31T08:17:12;18.63;;;14.50;;
57663;SDS011;43493;53.098;6.064;2022-10-31T08:19:38;17.63;;;15.07;;
57663;SDS011;43493;53.098;6.064;2022-10-31T08:22:04;20.83;;;14.67;;
57663;SDS011;43493;53.098;6.064;2022-10-31T08:24:29;17.37;;;14.03;;
57663;SDS011;43493;53.098;6.064;2022-10-31T08:26:55;19.47;;;14.60;;
57663;SDS011;43493;53.098;6.064;2022-10-31T08:29:21;17.33;;;14.83;;
57663;SDS011;43493;53.098;6.064;2022-10-31T08:31:46;21.13;;;15.67;;
57663;SDS011;43493;53.098;6.064;2022-10-31T08:34:12;18.53;;;15.33;;
57663;SDS011;43493;53.098;6.064;2022-10-31T08:36:38;20.80;;;15.10;;
57663;SDS011;43493;53.098;6.064;2022-10-31T08:39:03;17.80;;;14.43;;
57663;SDS011;43493;53.098;6.064;2022-10-31T08:41:29;18.30;;;15.20;;
57663;SDS011;43493;53.098;6.064;2022-10-31T08:43:55;17.53;;;14.33;;
57663;SDS011;43493;53.098;6.064;2022-10-31T08:46:21;18.47;;;14.83;;
57663;SDS011;43493;53.098;6.064;2022-10-31T08:48:47;19.53;;;15.30;;
57663;SDS011;43493;53.098;6.064;2022-10-31T08:51:13;20.60;;;14.93;;
57663;SDS011;43493;53.098;6.064;2022-10-31T08:53:39;19.70;;;14.43;;
57663;SDS011;43493;53.098;6.064;2022-10-31T08:56:04;20.87;;;14.70;;
57663;SDS011;43493;53.098;6.064;2022-10-31T08:58:30;21.83;;;15.80;;
57663;SDS011;43493;53.098;6.064;2022-10-31T09:00:58;20.87;;;16.07;;
57663;SDS011;43493;53.098;6.064;2022-10-31T09:03:26;15.97;;;14.20;;
57663;SDS011;43493;53.098;6.064;2022-10-31T09:05:55;17.87;;;14.93;;
57663;SDS011;43493;53.098;6.064;2022-10-31T09:08:24;17.83;;;14.87;;
57663;SDS011;43493;53.098;6.064;2022-10-31T09:10:50;20.80;;;14.77;;
57663;SDS011;43493;53.098;6.064;2022-10-31T09:13:19;18.33;;;15.43;;
57663;SDS011;43493;53.098;6.064;2022-10-31T09:15:46;16.93;;;14.20;;
57663;SDS011;43493;53.098;6.064;2022-10-31T09:18:14;20.00;;;15.10;;
57663;SDS011;43493;53.098;6.064;2022-10-31T09:20:42;20.77;;;15.87;;
57663;SDS011;43493;53.098;6.064;2022-10-31T09:23:09;21.83;;;14.80;;
57663;SDS011;43493;53.098;6.064;2022-10-31T09:25:37;21.80;;;15.67;;
57663;SDS011;43493;53.098;6.064;2022-10-31T09:28:04;21.47;;;14.93;;
57663;SDS011;43493;53.098;6.064;2022-10-31T09:30:32;19.03;;;15.17;;
57663;SDS011;43493;53.098;6.064;2022-10-31T09:33:01;18.00;;;14.57;;
57663;SDS011;43493;53.098;6.064;2022-10-31T09:35:31;21.03;;;15.50;;
57663;SDS011;43493;53.098;6.064;2022-10-31T09:37:57;20.77;;;15.07;;
57663;SDS011;43493;53.098;6.064;2022-10-31T09:40:27;20.13;;;15.43;;
57663;SDS011;43493;53.098;6.064;2022-10-31T09:46:07;20.23;;;13.77;;
57663;SDS011;43493;53.098;6.064;2022-10-31T09:51:15;20.03;;;14.80;;
57663;SDS011;43493;53.098;6.064;2022-10-31T09:53:59;21.13;;;14.80;;
57663;SDS011;43493;53.098;6.064;2022-10-31T09:56:45;21.23;;;13.97;;
57663;SDS011;43493;53.098;6.064;2022-10-31T09:59:12;16.73;;;12.40;;
57663;SDS011;43493;53.098;6.064;2022-10-31T10:02:37;18.07;;;13.10;;
57663;SDS011;43493;53.098;6.064;2022-10-31T10:04:59;20.13;;;13.00;;
57663;SDS011;43493;53.098;6.064;2022-10-31T10:07:32;16.97;;;13.57;;
57663;SDS011;43493;53.098;6.064;2022-10-31T10:13:00;17.13;;;12.40;;
57663;SDS011;43493;53.098;6.064;2022-10-31T10:26:49;18.77;;;13.27;;
57663;SDS011;43493;53.098;6.064;2022-10-31T10:29:50;23.67;;;13.50;;
57663;SDS011;43493;53.098;6.064;2022-10-31T10:32:24;19.07;;;13.77;;
57663;SDS011;43493;53.098;6.064;2022-10-31T10:34:55;19.40;;;12.83;;
57663;SDS011;43493;53.098;6.064;2022-10-31T10:37:30;18.57;;;12.40;;
57663;SDS011;43493;53.098;6.064;2022-10-31T10:45:50;17.10;;;13.23;;
57663;SDS011;43493;53.098;6.064;2022-10-31T10:48:44;18.40;;;13.60;;
57663;SDS011;43493;53.098;6.064;2022-10-31T10:51:23;14.10;;;10.73;;
57663;SDS011;43493;53.098;6.064;2022-10-31T10:54:13;15.93;;;11.83;;
57663;SDS011;43493;53.098;6.064;2022-10-31T10:59:44;16.55;;;12.70;;
57663;SDS011;43493;53.098;6.064;2022-10-31T11:02:17;18.37;;;12.10;;
57663;SDS011;43493;53.098;6.064;2022-10-31T11:04:47;19.90;;;12.37;;
57663;SDS011;43493;53.098;6.064;2022-10-31T11:07:19;16.40;;;11.93;;
57663;SDS011;43493;53.098;6.064;2022-10-31T11:09:45;18.97;;;10.53;;
57663;SDS011;43493;53.098;6.064;2022-10-31T11:12:26;18.23;;;11.23;;
57663;SDS011;43493;53.098;6.064;2022-10-31T11:14:56;15.93;;;11.50;;
57663;SDS011;43493;53.098;6.064;2022-10-31T11:17:32;19.13;;;11.20;;
57663;SDS011;43493;53.098;6.064;2022-10-31T11:20:02;17.47;;;11.87;;
57663;SDS011;43493;53.098;6.064;2022-10-31T11:22:48;17.37;;;11.50;;
57663;SDS011;43493;53.098;6.064;2022-10-31T11:25:23;20.20;;;12.63;;
57663;SDS011;43493;53.098;6.064;2022-10-31T11:28:04;20.37;;;13.23;;
57663;SDS011;43493;53.098;6.064;2022-10-31T11:30:42;17.60;;;13.20;;
57663;SDS011;43493;53.098;6.064;2022-10-31T11:33:22;20.63;;;13.53;;
57663;SDS011;43493;53.098;6.064;2022-10-31T11:35:49;23.03;;;14.73;;
57663;SDS011;43493;53.098;6.064;2022-10-31T11:38:18;19.40;;;13.97;;
57663;SDS011;43493;53.098;6.064;2022-10-31T11:41:05;18.20;;;13.83;;
57663;SDS011;43493;53.098;6.064;2022-10-31T11:43:33;17.17;;;13.47;;
57663;SDS011;43493;53.098;6.064;2022-10-31T11:45:59;21.80;;;15.03;;
57663;SDS011;43493;53.098;6.064;2022-10-31T11:48:33;20.27;;;14.87;;
57663;SDS011;43493;53.098;6.064;2022-10-31T11:50:58;19.53;;;14.33;;
57663;SDS011;43493;53.098;6.064;2022-10-31T11:53:28;19.30;;;14.63;;
57663;SDS011;43493;53.098;6.064;2022-10-31T11:58:27;15.40;;;12.07;;
57663;SDS011;43493;53.098;6.064;2022-10-31T12:00:54;19.33;;;12.37;;
57663;SDS011;43493;53.098;6.064;2022-10-31T12:06:21;15.57;;;10.38;;
57663;SDS011;43493;53.098;6.064;2022-10-31T12:08:51;13.38;;;9.65;;
57663;SDS011;43493;53.098;6.064;2022-10-31T12:16:50;13.40;;;9.30;;
57663;SDS011;43493;53.098;6.064;2022-10-31T12:19:40;15.43;;;9.23;;
57663;SDS011;43493;53.098;6.064;2022-10-31T12:33:19;15.17;;;8.40;;
57663;SDS011;43493;53.098;6.064;2022-10-31T12:36:09;13.20;;;7.70;;
57663;SDS011;43493;53.098;6.064;2022-10-31T12:50:02;17.60;;;7.30;;
57663;SDS011;43493;53.098;6.064;2022-10-31T12:58:31;13.13;;;9.00;;
57663;SDS011;43493;53.098;6.064;2022-10-31T13:03:48;12.93;;;8.80;;
57663;SDS011;43493;53.098;6.064;2022-10-31T13:06:32;11.63;;;8.67;;
57663;SDS011;43493;53.098;6.064;2022-10-31T13:09:06;12.43;;;9.00;;
57663;SDS011;43493;53.098;6.064;2022-10-31T13:12:06;14.50;;;8.90;;
57663;SDS011;43493;53.098;6.064;2022-10-31T13:14:39;14.27;;;9.50;;
57663;SDS011;43493;53.098;6.064;2022-10-31T13:17:08;13.50;;;8.40;;
57663;SDS011;43493;53.098;6.064;2022-10-31T13:19:43;13.60;;;8.77;;
57663;SDS011;43493;53.098;6.064;2022-10-31T13:22:25;12.27;;;9.00;;
57663;SDS011;43493;53.098;6.064;2022-10-31T13:27:25;13.27;;;7.83;;
57663;SDS011;43493;53.098;6.064;2022-10-31T13:32:20;13.97;;;8.07;;
57663;SDS011;43493;53.098;6.064;2022-10-31T13:34:47;12.40;;;7.40;;
57663;SDS011;43493;53.098;6.064;2022-10-31T13:45:50;10.27;;;5.60;;
57663;SDS011;43493;53.098;6.064;2022-10-31T13:51:00;11.00;;;6.13;;
57663;SDS011;43493;53.098;6.064;2022-10-31T13:56:13;12.60;;;6.53;;
57663;SDS011;43493;53.098;6.064;2022-10-31T13:58:42;11.57;;;5.90;;
57663;SDS011;43493;53.098;6.064;2022-10-31T14:01:28;12.17;;;6.20;;
57663;SDS011;43493;53.098;6.064;2022-10-31T14:03:59;13.83;;;6.20;;
57663;SDS011;43493;53.098;6.064;2022-10-31T14:06:40;9.27;;;5.20;;
57663;SDS011;43493;53.098;6.064;2022-10-31T14:09:20;10.90;;;5.50;;
57663;SDS011;43493;53.098;6.064;2022-10-31T14:11:50;10.73;;;5.93;;
57663;SDS011;43493;53.098;6.064;2022-10-31T14:14:17;11.83;;;5.43;;
57663;SDS011;43493;53.098;6.064;2022-10-31T14:16:44;10.00;;;5.10;;
57663;SDS011;43493;53.098;6.064;2022-10-31T14:19:15;12.07;;;4.73;;
57663;SDS011;43493;53.098;6.064;2022-10-31T14:21:44;10.50;;;4.37;;
57663;SDS011;43493;53.098;6.064;2022-10-31T14:24:14;12.40;;;4.60;;
57663;SDS011;43493;53.098;6.064;2022-10-31T14:31:55;8.90;;;3.53;;
57663;SDS011;43493;53.098;6.064;2022-10-31T14:34:41;11.60;;;4.33;;
57663;SDS011;43493;53.098;6.064;2022-10-31T14:51:07;13.80;;;4.00;;
57663;SDS011;43493;53.098;6.064;2022-10-31T14:53:50;9.70;;;3.63;;
57663;SDS011;43493;53.098;6.064;2022-10-31T14:56:20;11.00;;;4.37;;
57663;SDS011;43493;53.098;6.064;2022-10-31T14:58:52;12.50;;;4.27;;
57663;SDS011;43493;53.098;6.064;2022-10-31T15:03:53;9.70;;;3.47;;
57663;SDS011;43493;53.098;6.064;2022-10-31T15:06:23;12.13;;;3.60;;
57663;SDS011;43493;53.098;6.064;2022-10-31T15:08:50;9.40;;;3.40;;
57663;SDS011;43493;53.098;6.064;2022-10-31T15:11:25;9.30;;;3.23;;
57663;SDS011;43493;53.098;6.064;2022-10-31T15:13:52;12.40;;;3.70;;
57663;SDS011;43493;53.098;6.064;2022-10-31T15:16:20;10.43;;;3.37;;
57663;SDS011;43493;53.098;6.064;2022-10-31T15:18:52;9.53;;;3.50;;
57663;SDS011;43493;53.098;6.064;2022-10-31T15:21:20;12.57;;;3.73;;
57663;SDS011;43493;53.098;6.064;2022-10-31T15:23:47;11.33;;;3.20;;
57663;SDS011;43493;53.098;6.064;2022-10-31T15:26:18;11.97;;;3.43;;
57663;SDS011;43493;53.098;6.064;2022-10-31T15:28:57;12.47;;;3.67;;
57663;SDS011;43493;53.098;6.064;2022-10-31T15:31:32;10.27;;;3.17;;
57663;SDS011;43493;53.098;6.064;2022-10-31T15:34:00;10.53;;;3.17;;
57663;SDS011;43493;53.098;6.064;2022-10-31T15:36:41;14.33;;;4.40;;
57663;SDS011;43493;53.098;6.064;2022-10-31T15:39:10;10.23;;;3.97;;
57663;SDS011;43493;53.098;6.064;2022-10-31T15:41:43;9.53;;;3.60;;
57663;SDS011;43493;53.098;6.064;2022-10-31T15:47:00;14.00;;;4.90;;
57663;SDS011;43493;53.098;6.064;2022-10-31T15:49:36;10.25;;;4.13;;
57663;SDS011;43493;53.098;6.064;2022-10-31T15:54:59;11.70;;;5.07;;
57663;SDS011;43493;53.098;6.064;2022-10-31T15:57:27;12.17;;;5.10;;
57663;SDS011;43493;53.098;6.064;2022-10-31T15:59:52;11.77;;;5.33;;
57663;SDS011;43493;53.098;6.064;2022-10-31T16:02:20;11.13;;;5.73;;
57663;SDS011;43493;53.098;6.064;2022-10-31T16:04:53;11.83;;;5.30;;
57663;SDS011;43493;53.098;6.064;2022-10-31T16:12:15;12.90;;;5.57;;
57663;SDS011;43493;53.098;6.064;2022-10-31T16:14:41;11.23;;;5.53;;
57663;SDS011;43493;53.098;6.064;2022-10-31T16:17:11;10.73;;;5.83;;
57663;SDS011;43493;53.098;6.064;2022-10-31T16:19:44;14.17;;;5.37;;
57663;SDS011;43493;53.098;6.064;2022-10-31T16:22:24;15.07;;;5.80;;
57663;SDS011;43493;53.098;6.064;2022-10-31T16:27:33;13.57;;;6.27;;
57663;SDS011;43493;53.098;6.064;2022-10-31T16:30:01;14.13;;;6.33;;
57663;SDS011;43493;53.098;6.064;2022-10-31T16:32:35;17.33;;;6.63;;
57663;SDS011;43493;53.098;6.064;2022-10-31T16:35:18;11.85;;;6.25;;
57663;SDS011;43493;53.098;6.064;2022-10-31T16:37:44;14.37;;;6.43;;
57663;SDS011;43493;53.098;6.064;2022-10-31T16:40:10;18.53;;;7.50;;
57663;SDS011;43493;53.098;6.064;2022-10-31T16:42:40;14.57;;;7.60;;
57663;SDS011;43493;53.098;6.064;2022-10-31T16:45:06;15.00;;;7.20;;
57663;SDS011;43493;53.098;6.064;2022-10-31T16:47:37;14.93;;;7.67;;
57663;SDS011;43493;53.098;6.064;2022-10-31T16:50:05;15.53;;;8.43;;
57663;SDS011;43493;53.098;6.064;2022-10-31T16:52:36;17.97;;;8.87;;
57663;SDS011;43493;53.098;6.064;2022-10-31T16:55:02;13.90;;;7.70;;
57663;SDS011;43493;53.098;6.064;2022-10-31T16:57:29;17.30;;;8.07;;
57663;SDS011;43493;53.098;6.064;2022-10-31T16:59:55;12.63;;;7.10;;
57663;SDS011;43493;53.098;6.064;2022-10-31T17:02:22;14.97;;;8.33;;
57663;SDS011;43493;53.098;6.064;2022-10-31T17:04:48;13.40;;;8.07;;
57663;SDS011;43493;53.098;6.064;2022-10-31T17:07:14;15.13;;;8.27;;
57663;SDS011;43493;53.098;6.064;2022-10-31T17:09:39;14.93;;;8.50;;
57663;SDS011;43493;53.098;6.064;2022-10-31T17:12:11;14.20;;;8.20;;
57663;SDS011;43493;53.098;6.064;2022-10-31T17:14:42;14.88;;;8.20;;
57663;SDS011;43493;53.098;6.064;2022-10-31T17:17:10;15.53;;;8.77;;
57663;SDS011;43493;53.098;6.064;2022-10-31T17:19:37;15.27;;;8.77;;
57663;SDS011;43493;53.098;6.064;2022-10-31T17:22:03;17.13;;;7.77;;